createdAt,value
2018-10-11T00:00:00.121Z,13.50
2018-10-11T00:02:28.462Z,13.40
2018-10-11T00:04:56.932Z,13.30
2018-10-11T00:07:26.577Z,13.20
2018-10-11T00:09:55.640Z,13.00
2018-10-11T00:12:24.134Z,13.00
2018-10-11T00:14:52.506Z,12.90
2018-10-11T00:17:20.930Z,12.90
2018-10-11T00:19:49.334Z,12.70
2018-10-11T00:22:17.621Z,12.50
2018-10-11T00:24:46.044Z,12.30
2018-10-11T00:27:14.483Z,12.20
2018-10-11T00:29:42.859Z,12.10
2018-10-11T00:32:11.232Z,12.00
2018-10-11T00:34:39.633Z,12.00
2018-10-11T00:37:08.039Z,12.00
2018-10-11T00:39:36.534Z,12.10
2018-10-11T00:42:05.021Z,12.20
2018-10-11T00:44:33.539Z,12.20
2018-10-11T00:47:01.990Z,12.20
2018-10-11T00:49:30.409Z,12.30
2018-10-11T00:51:58.833Z,12.40
2018-10-11T00:54:27.160Z,12.30
2018-10-11T00:56:55.681Z,12.20
2018-10-11T00:59:24.360Z,12.10
2018-10-11T01:01:52.699Z,12.10
2018-10-11T01:04:21.162Z,12.10
2018-10-11T01:06:49.666Z,12.20
2018-10-11T01:09:18.219Z,12.20
2018-10-11T01:11:46.706Z,12.10
2018-10-11T01:14:15.073Z,12.00
2018-10-11T01:16:43.462Z,12.10
2018-10-11T01:19:11.899Z,12.20
2018-10-11T01:21:40.360Z,12.40
2018-10-11T01:24:09.402Z,12.50
2018-10-11T01:26:37.830Z,12.50
2018-10-11T01:29:06.214Z,12.50
2018-10-11T01:31:34.693Z,12.40
2018-10-11T01:34:03.172Z,12.40
2018-10-11T01:36:31.578Z,12.30
2018-10-11T01:39:00.004Z,12.10
2018-10-11T01:41:28.667Z,12.00
2018-10-11T01:43:57.036Z,11.70
2018-10-11T01:46:25.379Z,11.60
2018-10-11T01:48:53.757Z,11.50
2018-10-11T01:51:22.155Z,11.50
2018-10-11T01:53:50.589Z,11.50
2018-10-11T01:56:18.978Z,11.70
2018-10-11T01:58:48.079Z,11.70
2018-10-11T02:01:16.525Z,11.90
2018-10-11T02:03:45.194Z,12.00
2018-10-11T02:06:13.691Z,12.10
2018-10-11T02:08:42.102Z,12.00
2018-10-11T02:11:10.426Z,11.90
2018-10-11T02:13:38.864Z,11.80
2018-10-11T02:16:07.198Z,11.80
2018-10-11T02:18:35.563Z,11.70
2018-10-11T02:21:03.992Z,11.70
2018-10-11T02:23:32.606Z,11.60
2018-10-11T02:26:01.044Z,11.60
2018-10-11T02:28:29.458Z,11.70
2018-10-11T02:30:57.998Z,11.70
2018-10-11T02:33:26.393Z,11.70
2018-10-11T02:35:55.029Z,11.80
2018-10-11T02:38:23.525Z,11.90
2018-10-11T02:40:52.980Z,12.00
2018-10-11T02:43:21.393Z,12.10
2018-10-11T02:45:49.726Z,12.10
2018-10-11T02:48:18.206Z,12.30
2018-10-11T02:50:46.606Z,12.40
2018-10-11T02:53:15.033Z,12.50
2018-10-11T02:55:43.532Z,12.50
2018-10-11T02:58:20.882Z,12.50
2018-10-11T03:00:49.254Z,12.40
2018-10-11T03:03:21.028Z,12.20
2018-10-11T03:05:49.394Z,12.00
2018-10-11T03:08:19.865Z,11.80
2018-10-11T03:10:48.856Z,11.80
2018-10-11T03:13:17.218Z,11.90
2018-10-11T03:15:45.654Z,12.00
2018-10-11T03:18:14.597Z,12.00
2018-10-11T03:20:44.293Z,12.00
2018-10-11T03:23:13.619Z,12.00
2018-10-11T03:25:43.194Z,12.10
2018-10-11T03:28:13.025Z,12.10
2018-10-11T03:30:41.716Z,12.10
2018-10-11T03:33:10.514Z,12.00
2018-10-11T03:35:39.185Z,11.90
2018-10-11T03:38:07.595Z,11.70
2018-10-11T03:40:36.106Z,11.60
2018-10-11T03:43:04.514Z,11.40
2018-10-11T03:45:33.018Z,11.30
2018-10-11T03:48:01.335Z,11.20
2018-10-11T03:50:29.686Z,11.30
2018-10-11T03:52:58.657Z,11.40
2018-10-11T03:55:27.814Z,11.40
2018-10-11T03:57:56.564Z,11.40
2018-10-11T04:00:25.491Z,11.60
2018-10-11T04:02:53.844Z,11.60
2018-10-11T04:05:22.279Z,11.60
2018-10-11T04:07:50.916Z,11.60
2018-10-11T04:10:19.514Z,11.50
2018-10-11T04:12:47.937Z,11.40
2018-10-11T04:15:16.241Z,11.20
2018-10-11T04:17:44.665Z,11.20
2018-10-11T04:20:13.027Z,11.20
2018-10-11T04:22:42.106Z,11.20
2018-10-11T04:25:10.544Z,11.20
2018-10-11T04:27:38.968Z,11.20
2018-10-11T04:30:07.728Z,11.10
2018-10-11T04:32:36.298Z,11.00
2018-10-11T04:35:04.748Z,11.00
2018-10-11T04:37:33.348Z,11.00
2018-10-11T04:40:01.819Z,10.90
2018-10-11T04:42:30.639Z,10.80
2018-10-11T04:44:59.410Z,10.80
2018-10-11T04:47:27.891Z,10.70
2018-10-11T04:49:56.399Z,10.70
2018-10-11T04:52:25.078Z,10.50
2018-10-11T04:54:53.583Z,10.50
2018-10-11T04:57:22.007Z,10.50
2018-10-11T04:59:50.723Z,10.60
2018-10-11T05:02:19.096Z,10.70
2018-10-11T05:04:47.598Z,10.80
2018-10-11T05:07:16.183Z,10.90
2018-10-11T05:09:44.903Z,10.90
2018-10-11T05:12:13.339Z,11.00
2018-10-11T05:14:41.791Z,11.00
2018-10-11T05:17:10.559Z,11.00
2018-10-11T05:19:39.661Z,11.00
2018-10-11T05:22:08.070Z,11.10
2018-10-11T05:24:36.454Z,11.00
2018-10-11T05:27:04.938Z,11.00
2018-10-11T05:29:33.388Z,11.00
2018-10-11T05:32:01.909Z,10.90
2018-10-11T05:34:30.384Z,10.90
2018-10-11T05:37:00.008Z,10.80
2018-10-11T05:39:28.372Z,10.60
2018-10-11T05:41:56.942Z,10.50
2018-10-11T05:44:25.330Z,10.30
2018-10-11T05:46:53.851Z,10.30
2018-10-11T05:49:23.134Z,10.20
2018-10-11T05:51:52.100Z,10.20
2018-10-11T05:54:20.962Z,10.20
2018-10-11T05:56:50.233Z,10.30
2018-10-11T05:59:18.637Z,10.20
2018-10-11T06:01:47.243Z,10.20
2018-10-11T06:04:15.685Z,10.30
2018-10-11T06:06:45.486Z,10.30
2018-10-11T06:09:13.863Z,10.40
2018-10-11T06:11:42.495Z,10.90
2018-10-11T06:14:11.370Z,11.40
2018-10-11T06:16:39.888Z,12.10
2018-10-11T06:19:08.277Z,12.60
2018-10-11T06:21:37.256Z,13.00
2018-10-11T06:24:05.668Z,13.30
2018-10-11T06:26:34.023Z,13.60
2018-10-11T06:29:02.484Z,13.80
2018-10-11T06:31:30.920Z,14.00
2018-10-11T06:33:59.356Z,14.30
2018-10-11T06:36:28.071Z,14.50
2018-10-11T06:38:57.471Z,14.80
2018-10-11T06:41:26.697Z,15.10
2018-10-11T06:43:55.086Z,15.50
2018-10-11T06:46:23.549Z,15.80
2018-10-11T06:48:52.320Z,16.30
2018-10-11T06:51:20.823Z,16.70
2018-10-11T06:53:50.553Z,16.90
2018-10-11T06:56:19.103Z,16.70
2018-10-11T06:58:47.550Z,16.50
2018-10-11T07:01:15.929Z,16.40
2018-10-11T07:03:44.332Z,16.10
2018-10-11T07:06:12.808Z,16.20
2018-10-11T07:08:41.940Z,16.20
2018-10-11T07:11:10.494Z,16.30
2018-10-11T07:13:38.949Z,16.50
2018-10-11T07:16:07.458Z,16.90
2018-10-11T07:18:35.882Z,17.20
2018-10-11T07:21:04.348Z,17.40
2018-10-11T07:23:32.840Z,17.50
2018-10-11T07:26:01.388Z,17.60
2018-10-11T07:28:31.536Z,17.80
2018-10-11T07:31:00.104Z,17.80
2018-10-11T07:33:28.487Z,17.80
2018-10-11T07:35:57.179Z,17.70
2018-10-11T07:38:25.593Z,17.90
2018-10-11T07:40:54.387Z,17.80
2018-10-11T07:43:22.889Z,18.20
2018-10-11T07:45:52.169Z,18.30
2018-10-11T07:48:20.666Z,18.60
2018-10-11T07:50:49.307Z,18.90
2018-10-11T07:53:17.903Z,19.00
2018-10-11T07:55:46.362Z,19.30
2018-10-11T07:58:14.939Z,19.30
2018-10-11T08:00:43.375Z,19.60
2018-10-11T08:03:11.800Z,20.30
2018-10-11T08:05:40.253Z,20.90
2018-10-11T08:08:09.025Z,21.70
2018-10-11T08:10:37.558Z,22.40
2018-10-11T08:13:06.168Z,22.90
2018-10-11T08:15:34.662Z,23.10
2018-10-11T08:18:03.291Z,22.90
2018-10-11T08:20:31.614Z,23.00
2018-10-11T08:23:02.172Z,23.30
2018-10-11T08:25:30.840Z,23.90
2018-10-11T08:27:58.939Z,24.70
2018-10-11T08:30:27.625Z,25.30
2018-10-11T08:32:56.091Z,25.70
2018-10-11T08:35:24.615Z,25.60
2018-10-11T08:37:53.267Z,25.20
2018-10-11T08:40:21.741Z,25.40
2018-10-11T08:42:51.112Z,25.80
2018-10-11T08:45:19.738Z,26.20
2018-10-11T08:47:48.315Z,26.60
2018-10-11T08:50:16.974Z,26.70
2018-10-11T08:52:45.543Z,27.10
2018-10-11T08:55:14.056Z,27.50
2018-10-11T08:57:42.535Z,28.00
2018-10-11T09:00:11.107Z,27.90
2018-10-11T09:02:39.597Z,27.70
2018-10-11T09:05:08.248Z,28.00
2018-10-11T09:07:36.717Z,28.10
2018-10-11T09:10:08.786Z,28.10
2018-10-11T09:12:37.480Z,28.00
2018-10-11T09:15:07.605Z,28.30
2018-10-11T09:17:36.198Z,28.10
2018-10-11T09:20:05.058Z,28.30
2018-10-11T09:22:34.297Z,28.20
2018-10-11T09:25:02.723Z,28.20
2018-10-11T09:27:31.463Z,27.90
2018-10-11T09:29:59.943Z,27.60
2018-10-11T09:32:28.506Z,27.40
2018-10-11T09:34:56.835Z,26.90
2018-10-11T09:37:25.326Z,27.00
2018-10-11T09:39:53.911Z,27.40
2018-10-11T09:42:22.493Z,27.90
2018-10-11T09:44:51.126Z,27.70
2018-10-11T09:47:20.139Z,27.10
2018-10-11T09:49:48.846Z,27.10
2018-10-11T09:52:17.466Z,27.20
2018-10-11T09:54:46.085Z,27.20
2018-10-11T09:57:17.583Z,27.10
2018-10-11T09:59:46.132Z,26.90
2018-10-11T10:02:15.006Z,26.60
2018-10-11T10:04:45.951Z,26.50
2018-10-11T10:07:14.625Z,26.60
2018-10-11T10:09:43.798Z,26.40
2018-10-11T10:12:12.726Z,26.20
2018-10-11T10:14:42.093Z,26.20
2018-10-11T10:17:11.000Z,25.80
2018-10-11T10:19:40.896Z,25.80
2018-10-11T10:22:10.470Z,25.80
2018-10-11T10:24:38.974Z,26.00
2018-10-11T10:27:07.482Z,26.20
2018-10-11T10:29:36.059Z,26.30
2018-10-11T10:32:05.567Z,26.10
2018-10-11T10:34:34.052Z,26.00
2018-10-11T10:37:03.409Z,26.10
2018-10-11T10:39:32.084Z,26.10
2018-10-11T10:42:00.769Z,26.10
2018-10-11T10:44:29.212Z,26.20
2018-10-11T10:46:58.129Z,26.30
2018-10-11T10:49:27.058Z,26.40
2018-10-11T10:51:56.189Z,26.60
2018-10-11T10:54:29.232Z,26.60
2018-10-11T10:56:58.408Z,26.80
2018-10-11T10:59:27.044Z,26.60
2018-10-11T11:01:56.752Z,26.50
2018-10-11T11:04:25.389Z,26.50
2018-10-11T11:06:54.138Z,26.40
2018-10-11T11:09:23.000Z,26.60
2018-10-11T11:11:54.589Z,27.00
2018-10-11T11:14:23.337Z,26.90
2018-10-11T11:16:51.788Z,26.90
2018-10-11T11:19:20.402Z,26.90
2018-10-11T11:21:49.501Z,26.70
2018-10-11T11:24:17.992Z,26.60
2018-10-11T11:26:46.899Z,26.60
2018-10-11T11:29:15.721Z,26.60
2018-10-11T11:31:44.249Z,26.80
2018-10-11T11:34:16.108Z,26.90
2018-10-11T11:36:46.981Z,27.10
2018-10-11T11:39:15.787Z,27.30
2018-10-11T11:41:46.407Z,27.00
2018-10-11T11:44:15.281Z,26.60
2018-10-11T11:46:45.064Z,26.70
2018-10-11T11:49:13.681Z,26.60
2018-10-11T11:51:43.986Z,26.30
2018-10-11T11:54:17.476Z,26.00
2018-10-11T11:56:46.618Z,25.60
2018-10-11T11:59:15.175Z,25.30
2018-10-11T12:01:44.542Z,25.10
2018-10-11T12:04:16.317Z,25.00
2018-10-11T12:06:45.425Z,24.90
2018-10-11T12:09:15.885Z,24.70
2018-10-11T12:11:44.471Z,24.50
2018-10-11T12:14:13.645Z,24.50
2018-10-11T12:16:42.396Z,24.60
2018-10-11T12:19:12.089Z,24.60
2018-10-11T12:21:41.322Z,24.60
2018-10-11T12:24:10.826Z,24.60
2018-10-11T12:26:39.249Z,24.50
2018-10-11T12:29:08.451Z,24.50
2018-10-11T12:31:37.365Z,24.50
2018-10-11T12:34:06.106Z,24.40
2018-10-11T12:36:34.640Z,24.50
2018-10-11T12:39:05.439Z,24.60
2018-10-11T12:41:36.068Z,24.80
2018-10-11T12:44:05.465Z,24.70
2018-10-11T12:46:36.890Z,24.60
2018-10-11T12:49:02.405Z,24.40
2018-10-11T12:51:30.909Z,24.30
2018-10-11T12:53:59.441Z,24.20
2018-10-11T12:56:28.004Z,24.20
2018-10-11T12:58:59.053Z,24.10
2018-10-11T13:01:29.249Z,24.10
2018-10-11T13:03:58.145Z,24.20
2018-10-11T13:06:26.993Z,24.30
2018-10-11T13:08:55.446Z,24.40
2018-10-11T13:11:29.062Z,24.40
2018-10-11T13:13:59.385Z,24.40
2018-10-11T13:16:28.395Z,24.40
2018-10-11T13:18:57.547Z,24.40
2018-10-11T13:21:26.661Z,24.30
2018-10-11T13:23:55.188Z,25.00
2018-10-11T13:26:23.884Z,26.40
2018-10-11T13:28:53.743Z,27.60
2018-10-11T13:31:22.455Z,28.00
2018-10-11T13:33:52.998Z,27.80
2018-10-11T13:36:21.841Z,27.90
2018-10-11T13:38:50.813Z,27.60
2018-10-11T13:41:22.911Z,27.60
2018-10-11T13:43:54.256Z,27.20
2018-10-11T13:46:22.836Z,26.50
2018-10-11T13:48:51.288Z,26.40
2018-10-11T13:51:19.764Z,26.60
2018-10-11T13:53:55.481Z,27.00
2018-10-11T13:56:17.987Z,27.50
2018-10-11T13:58:46.592Z,27.80
2018-10-11T14:01:15.050Z,28.20
2018-10-11T14:03:43.850Z,28.10
2018-10-11T14:06:12.977Z,28.20
2018-10-11T14:08:41.466Z,27.10
2018-10-11T14:11:10.181Z,26.10
2018-10-11T14:13:39.425Z,26.20
2018-10-11T14:16:15.866Z,26.20
2018-10-11T14:18:44.400Z,26.90
2018-10-11T14:21:12.888Z,26.10
2018-10-11T14:23:41.418Z,25.50
2018-10-11T14:26:09.763Z,25.50
2018-10-11T14:28:38.498Z,26.10
2018-10-11T14:31:07.266Z,26.20
2018-10-11T14:33:35.784Z,25.70
2018-10-11T14:36:04.220Z,25.00
2018-10-11T14:38:32.950Z,24.60
2018-10-11T14:41:02.369Z,24.40
2018-10-11T14:43:30.948Z,24.20
2018-10-11T14:45:59.463Z,24.10
2018-10-11T14:48:28.165Z,23.90
2018-10-11T14:50:56.763Z,23.90
2018-10-11T14:53:25.152Z,23.80
2018-10-11T14:55:53.684Z,23.70
2018-10-11T14:58:23.347Z,23.60
2018-10-11T15:00:51.935Z,23.60
2018-10-11T15:03:20.761Z,23.60
2018-10-11T15:05:49.368Z,23.60
2018-10-11T15:08:17.812Z,23.60
2018-10-11T15:10:46.965Z,23.50
2018-10-11T15:13:15.620Z,23.50
2018-10-11T15:15:44.368Z,23.40
2018-10-11T15:18:12.769Z,23.30
2018-10-11T15:20:41.391Z,23.20
2018-10-11T15:23:09.776Z,23.10
2018-10-11T15:25:38.791Z,23.00
2018-10-11T15:28:09.547Z,23.00
2018-10-11T15:30:40.027Z,23.00
2018-10-11T15:33:09.475Z,23.00
2018-10-11T15:35:46.332Z,23.10
2018-10-11T15:38:15.800Z,23.10
2018-10-11T15:40:44.484Z,23.10
2018-10-11T15:43:14.320Z,23.00
2018-10-11T15:45:42.728Z,23.00
2018-10-11T15:48:11.245Z,23.00
2018-10-11T15:50:42.683Z,22.90
2018-10-11T15:53:11.151Z,22.90
2018-10-11T15:55:40.270Z,22.90
2018-10-11T15:58:08.708Z,22.80
2018-10-11T16:00:37.387Z,22.70
2018-10-11T16:03:05.857Z,22.70
2018-10-11T16:05:34.362Z,22.60
2018-10-11T16:08:03.187Z,22.60
2018-10-11T16:10:31.798Z,22.50
2018-10-11T16:13:00.461Z,22.40
2018-10-11T16:15:29.043Z,22.40
2018-10-11T16:17:57.621Z,22.30
2018-10-11T16:20:26.963Z,22.20
2018-10-11T16:22:56.414Z,22.10
2018-10-11T16:25:24.816Z,22.00
2018-10-11T16:27:53.380Z,22.00
2018-10-11T16:30:22.932Z,21.90
2018-10-11T16:32:51.492Z,21.90
2018-10-11T16:35:21.372Z,21.80
2018-10-11T16:37:49.874Z,21.80
2018-10-11T16:40:18.610Z,21.70
2018-10-11T16:42:47.380Z,21.70
2018-10-11T16:45:16.745Z,21.70
2018-10-11T16:47:46.049Z,21.60
2018-10-11T16:50:14.783Z,21.60
2018-10-11T16:52:44.016Z,21.50
2018-10-11T16:55:13.496Z,21.50
2018-10-11T16:57:42.920Z,21.40
2018-10-11T17:00:11.492Z,21.30
2018-10-11T17:02:40.305Z,21.30
2018-10-11T17:05:08.884Z,21.20
2018-10-11T17:07:37.433Z,21.10
2018-10-11T17:10:06.308Z,21.00
2018-10-11T17:12:34.726Z,21.00
2018-10-11T17:15:03.534Z,21.00
2018-10-11T17:17:32.138Z,20.90
2018-10-11T17:20:01.062Z,20.80
2018-10-11T17:25:51.194Z,20.70
2018-10-11T17:28:19.580Z,20.60
2018-10-11T17:30:50.114Z,20.60
2018-10-11T17:33:18.602Z,20.50
2018-10-11T17:35:47.304Z,20.50
2018-10-11T17:38:15.725Z,20.50
2018-10-11T17:40:44.323Z,20.50
2018-10-11T17:43:12.819Z,20.40
2018-10-11T17:45:41.403Z,20.40
2018-10-11T17:48:10.398Z,20.40
2018-10-11T17:50:38.931Z,20.30
2018-10-11T17:53:07.520Z,20.20
2018-10-11T17:55:36.160Z,20.20
2018-10-11T17:58:04.749Z,20.10
2018-10-11T18:00:34.412Z,20.10
2018-10-11T18:03:04.069Z,20.10
2018-10-11T18:05:32.689Z,20.00
2018-10-11T18:08:03.218Z,19.90
2018-10-11T18:10:31.757Z,19.90
2018-10-11T18:13:00.916Z,19.90
2018-10-11T18:15:29.353Z,20.00
2018-10-11T18:17:57.930Z,20.10
2018-10-11T18:20:26.398Z,20.20
2018-10-11T18:22:56.183Z,20.30
2018-10-11T18:25:25.626Z,20.30
2018-10-11T18:27:58.660Z,20.30
2018-10-11T18:30:29.654Z,20.30
2018-10-11T18:32:58.720Z,20.20
2018-10-11T18:35:27.762Z,20.20
2018-10-11T18:37:56.308Z,20.20
2018-10-11T18:40:24.711Z,20.10
2018-10-11T18:42:53.429Z,20.10
2018-10-11T18:45:21.874Z,20.00
2018-10-11T18:47:51.681Z,20.00
2018-10-11T18:50:20.987Z,19.80
2018-10-11T18:52:49.555Z,19.80
2018-10-11T18:55:19.319Z,19.70
2018-10-11T18:57:48.026Z,19.60
2018-10-11T19:00:17.143Z,19.50
2018-10-11T19:02:46.320Z,19.40
2018-10-11T19:05:15.044Z,19.40
2018-10-11T19:07:43.687Z,19.30
2018-10-11T19:10:12.284Z,19.20
2018-10-11T19:12:40.793Z,19.20
2018-10-11T19:15:09.238Z,19.20
2018-10-11T19:17:37.764Z,19.20
2018-10-11T19:20:06.393Z,19.10
2018-10-11T19:22:37.392Z,19.10
2018-10-11T19:25:05.980Z,19.10
2018-10-11T19:27:34.456Z,19.00
2018-10-11T19:30:03.747Z,19.00
2018-10-11T19:32:32.338Z,19.00
2018-10-11T19:35:00.962Z,19.00
2018-10-11T19:37:29.327Z,19.00
2018-10-11T19:39:58.183Z,19.10
2018-10-11T19:42:26.746Z,19.10
2018-10-11T19:44:56.326Z,19.00
2018-10-11T19:47:24.984Z,18.90
2018-10-11T19:49:53.541Z,18.80
2018-10-11T19:52:22.321Z,18.70
2018-10-11T19:54:50.636Z,18.60
2018-10-11T19:57:20.353Z,18.50
2018-10-11T19:59:49.340Z,18.40
2018-10-11T20:02:18.134Z,18.40
2018-10-11T20:04:46.664Z,18.40
2018-10-11T20:07:15.154Z,18.50
2018-10-11T20:09:45.236Z,18.50
2018-10-11T20:12:13.822Z,18.60
2018-10-11T20:14:42.275Z,18.60
2018-10-11T20:17:14.065Z,18.50
2018-10-11T20:19:43.202Z,18.50
2018-10-11T20:22:12.987Z,18.40
2018-10-11T20:24:42.441Z,18.40
2018-10-11T20:27:11.223Z,18.30
2018-10-11T20:29:40.540Z,18.30
2018-10-11T20:32:09.612Z,18.20
2018-10-11T20:34:38.064Z,18.20
2018-10-11T20:37:06.800Z,18.20
2018-10-11T20:39:35.159Z,18.20
2018-10-11T20:42:03.778Z,18.20
2018-10-11T20:44:32.223Z,18.20
2018-10-11T20:47:00.666Z,18.20
2018-10-11T20:49:29.204Z,18.30
2018-10-11T20:51:57.795Z,18.30
2018-10-11T20:54:26.298Z,18.20
2018-10-11T20:56:54.903Z,18.20
2018-10-11T20:59:24.298Z,18.00
2018-10-11T21:01:52.784Z,17.90
2018-10-11T21:04:21.314Z,17.80
2018-10-11T21:06:50.194Z,17.80
2018-10-11T21:09:18.552Z,17.80
2018-10-11T21:11:47.226Z,17.70
2018-10-11T21:14:16.031Z,17.60
2018-10-11T21:16:44.482Z,17.50
2018-10-11T21:19:12.937Z,17.50
2018-10-11T21:21:41.342Z,17.40
2018-10-11T21:24:09.765Z,17.40
2018-10-11T21:26:38.129Z,17.30
2018-10-11T21:29:06.521Z,17.30
2018-10-11T21:31:35.230Z,17.50
2018-10-11T21:34:03.651Z,17.50
2018-10-11T21:36:33.375Z,17.40
2018-10-11T21:39:01.889Z,17.20
2018-10-11T21:41:30.366Z,17.00
2018-10-11T21:43:58.890Z,16.90
2018-10-11T21:46:27.325Z,16.80
2018-10-11T21:48:55.756Z,16.70
2018-10-11T21:51:24.171Z,16.80
2018-10-11T21:53:52.906Z,16.80
2018-10-11T21:56:21.284Z,16.80
2018-10-11T21:58:49.768Z,16.90
2018-10-11T22:01:22.456Z,16.90
2018-10-11T22:03:51.325Z,16.90
2018-10-11T22:06:19.830Z,17.00
2018-10-11T22:08:48.195Z,17.10
2018-10-11T22:11:16.491Z,17.10
2018-10-11T22:13:45.225Z,17.00
2018-10-11T22:16:13.704Z,16.90
2018-10-11T22:18:42.340Z,16.80
2018-10-11T22:21:11.704Z,16.90
2018-10-11T22:23:41.414Z,17.00
2018-10-11T22:26:10.126Z,17.00
2018-10-11T22:28:38.874Z,17.10
2018-10-11T22:31:08.435Z,17.20
2018-10-11T22:33:36.805Z,17.40
2018-10-11T22:36:05.932Z,17.60
2018-10-11T22:38:34.337Z,17.60
2018-10-11T22:41:02.820Z,17.60
2018-10-11T22:43:31.082Z,17.60
2018-10-11T22:45:59.465Z,17.70
2018-10-11T22:48:27.945Z,17.60
2018-10-11T22:50:56.373Z,17.60
2018-10-11T22:53:24.779Z,17.60
2018-10-11T22:55:53.163Z,17.60
2018-10-11T22:58:21.584Z,17.50
2018-10-11T23:00:50.090Z,17.60
2018-10-11T23:03:18.476Z,17.50
2018-10-11T23:05:47.069Z,17.50
2018-10-11T23:08:15.680Z,17.50
2018-10-11T23:10:44.176Z,17.50
2018-10-11T23:13:12.603Z,17.40
2018-10-11T23:15:40.972Z,17.40
2018-10-11T23:18:09.418Z,17.20
2018-10-11T23:20:37.799Z,17.20
2018-10-11T23:23:06.205Z,17.30
2018-10-11T23:25:34.543Z,17.20
2018-10-11T23:28:03.019Z,17.30
2018-10-11T23:30:31.519Z,17.30
2018-10-11T23:32:59.863Z,17.30
2018-10-11T23:35:28.285Z,17.20
2018-10-11T23:37:56.705Z,17.20
2018-10-11T23:40:25.089Z,17.20
2018-10-11T23:42:53.403Z,17.00
2018-10-11T23:45:21.827Z,17.00
2018-10-11T23:47:50.153Z,17.00
2018-10-11T23:50:18.612Z,17.00
2018-10-11T23:52:47.017Z,17.00
2018-10-11T23:55:15.401Z,17.00
2018-10-11T23:57:43.804Z,17.00
